Roland, Iowa
Current Conditions -  °F | °C
As of 2:53 PM on Tuesday 21 Oct 2014 (Local Time) from KAMW Reporting Station
Clear Clear  
Wind Chill: 65°   Ceiling: Unl
Heat Index: 65°   Visibility: 10mi
Dew Point: 43°   Wind: 8mph
Humidity: 45%   Direction: 110°ESE
Pressure: 30.11"   Gusts: NA
Location:  42.17°N, 93.5°W
Report Text: KAMW 211953Z AUTO 11007KT 10SM CLR 18/06 A3011 RMK AO2 SLP196 T01830061 $
Loading
Personal Weather Stations






























Interactive Weather Map
Tropical Storm Tracking
New forecast layout! Learn more

10-Day Weather Forecast

Advertisements
Track Severe Weather on mobile